createdAt,value
2019-05-02T00:01:31.020Z,10.70
2019-05-02T00:04:01.012Z,10.60
2019-05-02T00:06:31.442Z,10.60
2019-05-02T00:09:03.934Z,10.60
2019-05-02T00:11:35.548Z,10.50
2019-05-02T00:14:06.042Z,10.50
2019-05-02T00:16:36.062Z,10.50
2019-05-02T00:19:09.220Z,10.50
2019-05-02T00:21:40.755Z,10.50
2019-05-02T00:24:10.981Z,10.50
2019-05-02T00:26:40.854Z,10.50
2019-05-02T00:29:10.928Z,10.50
2019-05-02T00:31:41.950Z,10.50
2019-05-02T00:34:12.568Z,10.40
2019-05-02T00:36:42.524Z,10.30
2019-05-02T00:39:13.890Z,10.30
2019-05-02T00:41:44.057Z,10.30
2019-05-02T00:44:14.001Z,10.20
2019-05-02T00:46:43.878Z,10.30
2019-05-02T00:49:15.403Z,10.30
2019-05-02T00:51:45.431Z,10.30
2019-05-02T00:54:19.258Z,10.20
2019-05-02T00:56:48.390Z,10.20
2019-05-02T00:59:18.332Z,10.10
2019-05-02T01:01:52.533Z,10.00
2019-05-02T01:04:27.455Z,9.90
2019-05-02T01:06:55.665Z,9.90
2019-05-02T01:09:25.599Z,9.80
2019-05-02T01:11:55.522Z,9.90
2019-05-02T01:14:27.251Z,9.90
2019-05-02T01:16:56.939Z,9.80
2019-05-02T01:19:26.873Z,9.80
2019-05-02T01:21:56.791Z,9.70
2019-05-02T01:24:26.779Z,9.70
2019-05-02T01:27:04.539Z,9.70
2019-05-02T01:29:46.536Z,9.70
2019-05-02T01:32:31.326Z,9.60
2019-05-02T01:35:03.012Z,9.50
2019-05-02T01:37:34.495Z,9.50
2019-05-02T01:40:07.205Z,9.50
2019-05-02T01:42:40.069Z,9.60
2019-05-02T01:45:11.161Z,9.50
2019-05-02T01:47:40.862Z,9.50
2019-05-02T01:50:11.055Z,9.40
2019-05-02T01:52:41.062Z,9.40
2019-05-02T01:55:11.251Z,9.40
2019-05-02T01:57:44.839Z,9.50
2019-05-02T02:00:13.686Z,9.50
2019-05-02T02:02:43.632Z,9.60
2019-05-02T02:05:13.622Z,9.70
2019-05-02T02:07:43.560Z,9.50
2019-05-02T02:10:15.096Z,9.40
2019-05-02T02:13:02.709Z,9.40
2019-05-02T02:15:16.845Z,9.30
2019-05-02T02:17:46.967Z,9.20
2019-05-02T02:20:19.896Z,9.20
2019-05-02T02:23:00.661Z,9.20
2019-05-02T02:25:37.845Z,9.20
2019-05-02T02:28:07.782Z,9.20
2019-05-02T02:30:37.757Z,9.20
2019-05-02T02:33:09.409Z,9.10
2019-05-02T02:35:49.547Z,9.10
2019-05-02T02:38:10.880Z,9.10
2019-05-02T02:40:40.741Z,9.20
2019-05-02T02:43:32.163Z,9.10
2019-05-02T02:46:01.206Z,9.10
2019-05-02T02:48:33.727Z,9.00
2019-05-02T02:51:03.469Z,9.00
2019-05-02T02:53:33.407Z,9.00
2019-05-02T02:56:06.073Z,8.90
2019-05-02T02:58:45.832Z,8.80
2019-05-02T03:01:07.948Z,8.80
2019-05-02T03:03:37.899Z,8.80
2019-05-02T03:06:08.514Z,8.80
2019-05-02T03:08:46.389Z,8.70
2019-05-02T03:11:22.371Z,8.70
2019-05-02T03:13:53.482Z,8.70
2019-05-02T03:16:25.034Z,8.70
2019-05-02T03:18:54.899Z,8.70
2019-05-02T03:21:24.787Z,8.60
2019-05-02T03:24:03.442Z,8.60
2019-05-02T03:26:26.863Z,8.60
2019-05-02T03:28:58.744Z,8.60
2019-05-02T03:31:30.871Z,8.50
2019-05-02T03:34:00.988Z,8.60
2019-05-02T03:36:36.037Z,8.50
2019-05-02T03:39:13.323Z,8.50
2019-05-02T03:41:35.995Z,8.50
2019-05-02T03:44:11.144Z,8.50
2019-05-02T03:46:37.485Z,8.40
2019-05-02T03:49:09.756Z,8.40
2019-05-02T03:51:39.358Z,8.40
2019-05-02T03:54:10.418Z,8.30
2019-05-02T03:56:44.795Z,8.20
2019-05-02T03:59:12.148Z,8.20
2019-05-02T04:01:43.172Z,8.30
2019-05-02T04:04:20.563Z,8.30
2019-05-02T04:06:47.280Z,8.50
2019-05-02T04:09:32.041Z,8.50
2019-05-02T04:12:04.240Z,8.50
2019-05-02T04:14:38.938Z,8.50
2019-05-02T04:17:09.560Z,8.60
2019-05-02T04:19:40.450Z,8.60
2019-05-02T04:22:11.889Z,8.60
2019-05-02T04:24:47.932Z,8.70
2019-05-02T04:27:14.418Z,8.80
2019-05-02T04:29:44.337Z,9.00
2019-05-02T04:32:14.754Z,9.40
2019-05-02T04:34:48.868Z,9.80
2019-05-02T04:37:16.312Z,10.30
2019-05-02T04:39:49.104Z,10.70
2019-05-02T04:42:22.966Z,11.00
2019-05-02T04:45:11.760Z,11.30
2019-05-02T04:47:22.373Z,11.80
2019-05-02T04:49:57.968Z,12.30
2019-05-02T04:52:28.795Z,12.80
2019-05-02T04:55:08.011Z,13.50
2019-05-02T04:57:36.839Z,14.00
2019-05-02T05:00:10.495Z,14.50
2019-05-02T05:02:36.765Z,15.10
2019-05-02T05:05:08.330Z,15.50
2019-05-02T05:07:43.706Z,16.10
2019-05-02T05:10:11.516Z,16.60
2019-05-02T05:12:41.937Z,17.50
2019-05-02T05:15:13.356Z,18.20
2019-05-02T05:17:43.589Z,18.70
2019-05-02T05:20:15.608Z,19.80
2019-05-02T05:22:45.963Z,20.50
2019-05-02T05:25:33.733Z,20.70
2019-05-02T05:28:06.123Z,21.20
2019-05-02T05:30:37.590Z,21.70
2019-05-02T05:33:09.925Z,22.10
2019-05-02T05:35:38.628Z,22.10
2019-05-02T05:38:08.627Z,22.70
2019-05-02T05:40:38.559Z,22.50
2019-05-02T05:43:14.584Z,22.20
2019-05-02T05:45:50.689Z,22.20
2019-05-02T05:48:13.827Z,21.90
2019-05-02T05:50:43.204Z,22.20
2019-05-02T05:53:17.204Z,22.80
2019-05-02T05:55:44.648Z,22.80
2019-05-02T05:58:18.197Z,23.30
2019-05-02T06:00:53.832Z,22.90
2019-05-02T06:03:18.715Z,22.70
2019-05-02T06:05:48.588Z,23.00
2019-05-02T06:08:20.019Z,23.60
2019-05-02T06:10:50.894Z,23.60
2019-05-02T06:13:21.929Z,23.20
2019-05-02T06:16:02.246Z,22.70
2019-05-02T06:18:23.464Z,22.60
2019-05-02T06:20:53.325Z,22.40
2019-05-02T06:23:23.278Z,22.30
2019-05-02T06:25:53.150Z,22.30
2019-05-02T06:28:23.101Z,22.30
2019-05-02T06:30:53.055Z,22.00
2019-05-02T06:33:25.967Z,21.80
2019-05-02T06:36:00.851Z,21.90
2019-05-02T06:38:26.207Z,21.50
2019-05-02T06:40:56.341Z,21.30
2019-05-02T06:43:26.283Z,21.50
2019-05-02T06:45:56.148Z,21.10
2019-05-02T06:48:26.156Z,21.20
2019-05-02T06:50:56.996Z,20.80
2019-05-02T06:53:26.875Z,20.40
2019-05-02T06:55:56.803Z,19.90
2019-05-02T06:58:26.659Z,19.30
2019-05-02T07:00:58.980Z,18.90
2019-05-02T07:03:29.279Z,18.50
2019-05-02T07:06:02.844Z,18.40
2019-05-02T07:08:30.843Z,18.10
2019-05-02T07:11:03.000Z,18.00
2019-05-02T07:13:36.306Z,18.00
2019-05-02T07:16:10.399Z,18.00
2019-05-02T07:18:42.095Z,18.00
2019-05-02T07:21:12.215Z,17.90
2019-05-02T07:23:43.270Z,17.80
2019-05-02T07:26:15.404Z,17.60
2019-05-02T07:28:45.716Z,17.00
2019-05-02T07:31:16.700Z,17.20
2019-05-02T07:33:46.677Z,17.50
2019-05-02T07:36:16.633Z,17.70
2019-05-02T07:38:46.572Z,18.00
2019-05-02T07:41:16.502Z,18.10
2019-05-02T07:43:47.502Z,18.30
2019-05-02T07:46:21.019Z,18.70
2019-05-02T07:48:54.668Z,19.00
2019-05-02T07:51:21.259Z,19.10
2019-05-02T07:53:55.239Z,19.30
2019-05-02T07:56:23.836Z,19.50
2019-05-02T07:58:54.549Z,19.80
2019-05-02T08:01:24.562Z,19.80
2019-05-02T08:03:54.486Z,19.70
2019-05-02T08:06:34.926Z,19.70
2019-05-02T08:08:55.987Z,19.70
2019-05-02T08:11:26.212Z,19.70
2019-05-02T08:14:00.302Z,19.00
2019-05-02T08:16:28.729Z,19.10
2019-05-02T08:19:01.388Z,19.30
2019-05-02T08:21:32.481Z,19.10
2019-05-02T08:24:03.502Z,19.10
2019-05-02T08:26:43.997Z,19.10
2019-05-02T08:29:14.109Z,19.40
2019-05-02T08:31:44.042Z,19.70
2019-05-02T08:34:15.910Z,19.90
2019-05-02T08:36:45.580Z,19.90
2019-05-02T08:39:15.463Z,20.00
2019-05-02T08:41:45.400Z,20.00
2019-05-02T08:44:16.773Z,20.00
2019-05-02T08:46:51.377Z,19.90
2019-05-02T08:49:19.985Z,20.00
2019-05-02T08:51:51.113Z,20.20
2019-05-02T08:54:21.042Z,20.40
2019-05-02T08:56:53.230Z,20.60
2019-05-02T08:59:24.504Z,20.40
2019-05-02T09:01:54.057Z,20.50
2019-05-02T09:04:28.485Z,20.70
2019-05-02T09:06:58.743Z,21.00
2019-05-02T09:09:28.028Z,21.30
2019-05-02T09:12:11.390Z,21.60
2019-05-02T09:14:32.072Z,21.60
2019-05-02T09:17:08.888Z,21.50
2019-05-02T09:19:34.833Z,21.80
2019-05-02T09:22:07.715Z,22.10
2019-05-02T09:24:36.691Z,22.40
2019-05-02T09:27:06.792Z,22.60
2019-05-02T09:29:37.426Z,22.90
2019-05-02T09:32:08.321Z,23.10
2019-05-02T09:34:38.284Z,23.50
2019-05-02T09:37:08.163Z,23.40
2019-05-02T09:39:38.023Z,23.30
2019-05-02T09:42:12.171Z,23.50
2019-05-02T09:44:39.829Z,23.70
2019-05-02T09:47:12.842Z,24.00
2019-05-02T09:49:48.880Z,24.00
2019-05-02T09:52:14.456Z,24.10
2019-05-02T09:54:46.148Z,23.60
2019-05-02T09:57:15.954Z,23.90
2019-05-02T09:59:50.600Z,23.80
2019-05-02T10:02:18.444Z,23.60
2019-05-02T10:04:48.323Z,23.20
2019-05-02T10:07:19.419Z,23.10
2019-05-02T10:09:49.355Z,23.20
2019-05-02T10:12:19.213Z,23.90
2019-05-02T10:14:49.240Z,24.80
2019-05-02T10:17:19.238Z,24.90
2019-05-02T10:19:54.975Z,24.30
2019-05-02T10:22:22.819Z,23.60
2019-05-02T10:24:52.641Z,23.10
2019-05-02T10:27:22.560Z,22.50
2019-05-02T10:29:52.602Z,22.00
2019-05-02T10:32:22.702Z,23.20
2019-05-02T10:34:56.707Z,24.90
2019-05-02T10:37:24.223Z,26.10
2019-05-02T10:39:55.821Z,27.30
2019-05-02T10:42:25.884Z,28.80
2019-05-02T10:44:55.777Z,30.60
2019-05-02T10:47:25.734Z,30.40
2019-05-02T10:49:57.331Z,29.30
2019-05-02T10:52:34.012Z,27.20
2019-05-02T10:54:58.916Z,24.80
2019-05-02T10:57:28.855Z,24.10
2019-05-02T10:59:58.806Z,24.50
2019-05-02T11:02:41.985Z,25.80
2019-05-02T11:05:16.932Z,27.20
2019-05-02T11:07:45.247Z,28.00
2019-05-02T11:10:16.348Z,28.90
2019-05-02T11:13:03.043Z,28.50
2019-05-02T11:15:46.825Z,28.20
2019-05-02T11:18:18.662Z,27.80
2019-05-02T11:20:48.583Z,26.40
2019-05-02T11:23:18.477Z,25.90
2019-05-02T11:25:48.428Z,26.30
2019-05-02T11:28:18.488Z,27.20
2019-05-02T11:30:48.627Z,26.70
2019-05-02T11:33:18.614Z,25.80
2019-05-02T11:35:50.799Z,24.40
2019-05-02T11:38:35.856Z,24.10
2019-05-02T11:40:52.140Z,23.90
2019-05-02T11:43:22.424Z,23.80
2019-05-02T11:45:54.163Z,23.80
2019-05-02T11:48:23.920Z,23.90
2019-05-02T11:50:53.897Z,24.20
2019-05-02T11:53:28.507Z,24.20
2019-05-02T11:55:58.245Z,23.40
2019-05-02T11:58:26.975Z,23.00
2019-05-02T12:00:56.927Z,21.80
2019-05-02T12:03:37.100Z,21.80
2019-05-02T12:06:12.292Z,22.00
2019-05-02T12:08:39.373Z,22.80
2019-05-02T12:11:13.948Z,24.40
2019-05-02T12:13:42.754Z,25.70
2019-05-02T12:16:14.190Z,26.30
2019-05-02T12:18:44.125Z,27.00
2019-05-02T12:21:14.143Z,27.60
2019-05-02T12:23:45.076Z,28.10
2019-05-02T12:26:15.083Z,27.50
2019-05-02T12:28:45.024Z,27.90
2019-05-02T12:31:27.107Z,28.10
2019-05-02T12:33:57.855Z,29.10
2019-05-02T12:36:27.788Z,29.90
2019-05-02T12:38:57.743Z,28.80
2019-05-02T12:41:27.706Z,28.10
2019-05-02T12:43:57.592Z,26.50
2019-05-02T12:46:28.542Z,25.70
2019-05-02T12:48:58.601Z,25.10
2019-05-02T12:51:28.517Z,25.00
2019-05-02T12:53:58.458Z,24.80
2019-05-02T12:56:28.401Z,24.60
2019-05-02T12:58:58.259Z,24.20
2019-05-02T13:01:28.212Z,23.50
2019-05-02T13:03:59.796Z,23.90
2019-05-02T13:06:29.750Z,25.00
2019-05-02T13:08:59.699Z,25.50
2019-05-02T13:11:32.140Z,25.50
2019-05-02T13:14:03.952Z,25.80
2019-05-02T13:16:33.992Z,26.00
2019-05-02T13:19:06.167Z,25.60
2019-05-02T13:21:42.383Z,25.00
2019-05-02T13:24:16.434Z,24.40
2019-05-02T13:26:46.884Z,23.80
2019-05-02T13:29:16.964Z,23.10
2019-05-02T13:32:01.678Z,22.90
2019-05-02T13:34:33.324Z,23.60
2019-05-02T13:37:03.836Z,23.90
2019-05-02T13:39:38.201Z,23.60
2019-05-02T13:42:08.824Z,22.80
2019-05-02T13:44:42.913Z,22.50
2019-05-02T13:47:14.488Z,22.60
2019-05-02T13:49:53.622Z,22.60
2019-05-02T13:52:15.952Z,22.60
2019-05-02T13:54:46.378Z,22.20
2019-05-02T13:57:16.298Z,22.20
2019-05-02T13:59:47.339Z,21.70
2019-05-02T14:02:37.092Z,21.50
2019-05-02T14:05:09.552Z,21.60
2019-05-02T14:07:42.933Z,21.50
2019-05-02T14:10:18.805Z,21.30
2019-05-02T14:12:59.447Z,21.10
2019-05-02T14:15:32.393Z,20.80
2019-05-02T14:18:03.633Z,20.70
2019-05-02T14:20:33.762Z,20.90
2019-05-02T14:23:03.743Z,21.10
2019-05-02T14:25:33.603Z,21.40
2019-05-02T14:28:03.531Z,21.30
2019-05-02T14:30:39.377Z,21.30
2019-05-02T14:33:07.317Z,21.40
2019-05-02T14:35:37.938Z,21.50
2019-05-02T14:38:09.899Z,21.30
2019-05-02T14:40:51.975Z,21.40
2019-05-02T14:43:44.475Z,21.40
2019-05-02T14:46:12.662Z,21.40
2019-05-02T14:48:45.147Z,21.30
2019-05-02T14:51:21.989Z,21.20
2019-05-02T14:53:48.341Z,21.00
2019-05-02T14:56:23.009Z,20.90
2019-05-02T14:58:53.000Z,20.90
2019-05-02T15:01:26.151Z,20.90
2019-05-02T15:03:58.280Z,20.90
2019-05-02T15:06:27.134Z,21.10
2019-05-02T15:08:57.153Z,21.10
2019-05-02T15:11:30.953Z,21.10
2019-05-02T15:13:58.654Z,21.10
2019-05-02T15:16:39.540Z,21.20
2019-05-02T15:19:02.004Z,21.10
2019-05-02T15:21:47.027Z,20.90
2019-05-02T15:24:15.522Z,21.00
2019-05-02T15:26:45.455Z,20.90
2019-05-02T15:29:19.826Z,21.00
2019-05-02T15:31:57.868Z,21.00
2019-05-02T15:34:36.979Z,20.90
2019-05-02T15:37:04.954Z,20.90
2019-05-02T15:42:06.496Z,20.50
2019-05-02T15:44:36.546Z,20.50
2019-05-02T15:47:07.062Z,20.60
2019-05-02T15:49:50.161Z,20.60
2019-05-02T15:52:24.214Z,20.60
2019-05-02T15:54:59.811Z,20.50
2019-05-02T15:57:24.931Z,20.60
2019-05-02T15:59:55.285Z,20.60
2019-05-02T16:02:26.887Z,20.60
2019-05-02T16:05:01.376Z,20.70
2019-05-02T16:07:28.509Z,20.70
2019-05-02T16:10:01.147Z,20.60
2019-05-02T16:12:32.158Z,20.60
2019-05-02T16:15:25.820Z,20.60
2019-05-02T16:17:56.736Z,20.70
2019-05-02T16:20:40.417Z,20.90
2019-05-02T16:23:07.535Z,20.80
2019-05-02T16:25:37.479Z,20.90
2019-05-02T16:28:12.614Z,20.80
2019-05-02T16:30:47.652Z,20.70
2019-05-02T16:33:19.716Z,20.50
2019-05-02T16:35:52.911Z,20.30
2019-05-02T16:38:19.657Z,20.20
2019-05-02T16:40:49.620Z,20.20
2019-05-02T16:43:19.550Z,20.10
2019-05-02T16:45:49.488Z,19.90
2019-05-02T16:48:19.437Z,20.00
2019-05-02T16:50:49.642Z,20.10
2019-05-02T16:53:22.620Z,20.10
2019-05-02T16:55:51.243Z,19.80
2019-05-02T16:58:21.303Z,19.80
2019-05-02T17:00:52.806Z,19.80
2019-05-02T17:03:26.429Z,19.50
2019-05-02T17:05:54.688Z,19.30
2019-05-02T17:08:41.860Z,19.10
2019-05-02T17:11:27.787Z,19.00
2019-05-02T17:13:55.061Z,18.80
2019-05-02T17:16:25.025Z,18.70
2019-05-02T17:18:56.566Z,18.60
2019-05-02T17:21:26.901Z,18.50
2019-05-02T17:23:58.428Z,18.40
2019-05-02T17:26:28.336Z,18.30
2019-05-02T17:28:58.264Z,18.20
2019-05-02T17:31:29.123Z,18.10
2019-05-02T17:33:59.062Z,18.00
2019-05-02T17:36:30.626Z,18.00
2019-05-02T17:39:06.804Z,17.80
2019-05-02T17:41:37.102Z,17.80
2019-05-02T17:44:05.697Z,17.70
2019-05-02T17:46:36.677Z,17.60
2019-05-02T17:49:06.865Z,17.60
2019-05-02T17:52:05.013Z,17.50
2019-05-02T17:54:26.695Z,17.50
2019-05-02T17:56:57.397Z,17.40
2019-05-02T17:59:33.025Z,17.40
2019-05-02T18:02:01.865Z,17.40
2019-05-02T18:04:32.507Z,17.40
2019-05-02T18:07:02.588Z,17.40
2019-05-02T18:09:35.036Z,17.20
2019-05-02T18:12:07.176Z,17.20
2019-05-02T18:14:36.487Z,17.10
2019-05-02T18:17:07.444Z,17.00
2019-05-02T18:19:37.618Z,16.80
2019-05-02T18:22:21.123Z,16.70
2019-05-02T18:24:44.782Z,16.70
2019-05-02T18:27:12.923Z,16.60
2019-05-02T18:29:45.691Z,16.50
2019-05-02T18:32:17.632Z,16.50
2019-05-02T18:34:47.293Z,16.50
2019-05-02T18:37:17.254Z,16.40
2019-05-02T18:39:53.360Z,16.40
2019-05-02T18:42:21.925Z,16.30
2019-05-02T18:44:53.098Z,16.30
2019-05-02T18:47:24.812Z,16.30
2019-05-02T18:50:04.357Z,16.30
2019-05-02T18:52:36.320Z,16.30
2019-05-02T18:54:58.901Z,16.30
2019-05-02T18:57:29.634Z,16.30
2019-05-02T18:59:59.621Z,16.20
2019-05-02T19:02:32.740Z,16.20
2019-05-02T19:05:01.937Z,16.20
2019-05-02T19:07:35.383Z,16.10
2019-05-02T19:10:09.093Z,16.20
2019-05-02T19:12:39.020Z,16.20
2019-05-02T19:15:09.231Z,16.20
2019-05-02T19:17:40.515Z,16.20
2019-05-02T19:20:28.934Z,16.20
2019-05-02T19:23:00.262Z,16.20
2019-05-02T19:25:32.136Z,16.10
2019-05-02T19:28:06.619Z,16.10
2019-05-02T19:30:38.993Z,16.10
2019-05-02T19:33:09.434Z,16.10
2019-05-02T19:35:43.159Z,16.00
2019-05-02T19:38:12.280Z,16.00
2019-05-02T19:40:43.604Z,16.00
2019-05-02T19:43:14.864Z,15.90
2019-05-02T19:45:50.380Z,15.90
2019-05-02T19:48:18.652Z,15.90
2019-05-02T19:50:51.705Z,16.00
2019-05-02T19:53:22.893Z,15.90
2019-05-02T19:55:57.247Z,15.80
2019-05-02T19:58:24.667Z,15.80
2019-05-02T20:00:56.673Z,15.80
2019-05-02T20:03:26.697Z,15.80
2019-05-02T20:06:02.398Z,15.90
2019-05-02T20:08:29.440Z,15.80
2019-05-02T20:10:59.693Z,15.80
2019-05-02T20:13:32.544Z,15.80
2019-05-02T20:16:13.274Z,15.70
2019-05-02T20:18:47.144Z,15.60
2019-05-02T20:21:23.161Z,15.50
2019-05-02T20:23:47.978Z,15.40
2019-05-02T20:26:17.990Z,15.30
2019-05-02T20:28:48.410Z,15.30
2019-05-02T20:31:18.272Z,15.20
2019-05-02T20:33:49.067Z,15.20
2019-05-02T20:36:19.255Z,15.20
2019-05-02T20:38:49.554Z,15.70
2019-05-02T20:41:19.419Z,15.10
2019-05-02T20:43:51.694Z,15.00
2019-05-02T20:46:22.065Z,14.90
2019-05-02T20:48:52.543Z,14.90
2019-05-02T20:51:22.895Z,14.90
2019-05-02T20:53:53.881Z,14.70
2019-05-02T20:56:23.826Z,14.60
2019-05-02T20:58:54.801Z,14.50
2019-05-02T21:01:24.915Z,14.50
2019-05-02T21:03:54.866Z,14.50
2019-05-02T21:06:37.649Z,14.40
2019-05-02T21:09:02.048Z,14.30
2019-05-02T21:11:32.914Z,14.30
2019-05-02T21:14:03.097Z,14.30
2019-05-02T21:16:33.087Z,14.20
2019-05-02T21:19:04.188Z,14.20
2019-05-02T21:21:34.951Z,14.10
2019-05-02T21:24:05.165Z,14.10
2019-05-02T21:26:35.186Z,14.00
2019-05-02T21:29:05.186Z,14.10
2019-05-02T21:31:35.188Z,14.10
2019-05-02T21:34:07.274Z,14.10
2019-05-02T21:36:36.753Z,14.00
2019-05-02T21:39:11.761Z,14.00
2019-05-02T21:41:42.370Z,13.90
2019-05-02T21:44:13.160Z,13.90
2019-05-02T21:46:43.324Z,13.90
2019-05-02T21:49:14.872Z,13.70
2019-05-02T21:51:47.077Z,13.80
2019-05-02T21:54:24.125Z,13.80
2019-05-02T21:56:58.096Z,13.70
2019-05-02T21:59:28.040Z,13.80
2019-05-02T22:01:59.672Z,13.70
2019-05-02T22:04:31.650Z,13.70
2019-05-02T22:07:01.262Z,13.80
2019-05-02T22:09:32.495Z,13.80
2019-05-02T22:12:02.566Z,13.70
2019-05-02T22:14:32.946Z,13.50
2019-05-02T22:17:04.187Z,13.40
2019-05-02T22:19:34.188Z,13.30
2019-05-02T22:22:04.195Z,13.40
2019-05-02T22:24:34.060Z,13.40
2019-05-02T22:27:05.737Z,13.40
2019-05-02T22:29:36.198Z,13.30
2019-05-02T22:32:06.118Z,13.30
2019-05-02T22:34:36.040Z,13.30
2019-05-02T22:37:07.674Z,13.20
2019-05-02T22:39:45.195Z,13.20
2019-05-02T22:42:15.322Z,13.20
2019-05-02T22:44:45.176Z,13.30
2019-05-02T22:47:15.069Z,13.20
2019-05-02T22:49:45.008Z,13.10
2019-05-02T22:52:15.637Z,13.10
2019-05-02T22:54:45.504Z,13.20
2019-05-02T22:57:15.436Z,13.10
2019-05-02T22:59:45.313Z,13.20
2019-05-02T23:02:15.248Z,13.20
2019-05-02T23:04:45.207Z,13.20
2019-05-02T23:07:15.153Z,13.20
2019-05-02T23:09:45.095Z,13.20
2019-05-02T23:12:15.999Z,13.10
2019-05-02T23:14:45.875Z,13.00
2019-05-02T23:17:15.812Z,13.00
2019-05-02T23:19:45.773Z,13.00
2019-05-02T23:22:15.705Z,12.90
2019-05-02T23:24:53.330Z,12.80
2019-05-02T23:27:31.725Z,12.70
2019-05-02T23:30:02.859Z,12.80
2019-05-02T23:32:33.616Z,12.80
2019-05-02T23:35:03.901Z,12.70
2019-05-02T23:37:33.771Z,12.80
2019-05-02T23:40:03.700Z,12.80
2019-05-02T23:42:33.590Z,12.70
2019-05-02T23:45:05.988Z,12.60
2019-05-02T23:47:38.089Z,12.60
2019-05-02T23:50:09.277Z,12.60
2019-05-02T23:52:39.810Z,12.60
2019-05-02T23:55:09.877Z,12.60
2019-05-02T23:57:41.855Z,12.70
